sensor_id;sensor_type;location;lat;lon;timestamp;P1;durP1;ratioP1;P2;durP2;ratioP2
10096;SDS011;5087;42.662;23.466;2022-10-30T00:00:46;2.10;;;2.10;;
10096;SDS011;5087;42.662;23.466;2022-10-30T00:03:15;2.27;;;2.27;;
10096;SDS011;5087;42.662;23.466;2022-10-30T00:05:43;2.00;;;2.00;;
10096;SDS011;5087;42.662;23.466;2022-10-30T00:08:12;2.00;;;2.00;;
10096;SDS011;5087;42.662;23.466;2022-10-30T00:10:42;2.63;;;2.60;;
10096;SDS011;5087;42.662;23.466;2022-10-30T00:13:10;2.20;;;2.20;;
10096;SDS011;5087;42.662;23.466;2022-10-30T00:15:38;2.20;;;2.20;;
10096;SDS011;5087;42.662;23.466;2022-10-30T00:18:05;2.13;;;2.13;;
10096;SDS011;5087;42.662;23.466;2022-10-30T00:20:34;1.90;;;1.90;;
10096;SDS011;5087;42.662;23.466;2022-10-30T00:23:02;1.60;;;1.60;;
10096;SDS011;5087;42.662;23.466;2022-10-30T00:25:29;1.40;;;1.40;;
10096;SDS011;5087;42.662;23.466;2022-10-30T00:28:00;1.10;;;1.10;;
10096;SDS011;5087;42.662;23.466;2022-10-30T00:30:27;2.80;;;2.60;;
10096;SDS011;5087;42.662;23.466;2022-10-30T00:32:54;0.50;;;0.50;;
10096;SDS011;5087;42.662;23.466;2022-10-30T00:35:22;0.50;;;0.50;;
10096;SDS011;5087;42.662;23.466;2022-10-30T00:37:49;0.77;;;0.77;;
10096;SDS011;5087;42.662;23.466;2022-10-30T00:40:17;0.63;;;0.63;;
10096;SDS011;5087;42.662;23.466;2022-10-30T00:42:45;0.70;;;0.70;;
10096;SDS011;5087;42.662;23.466;2022-10-30T00:45:14;0.40;;;0.40;;
10096;SDS011;5087;42.662;23.466;2022-10-30T00:47:43;0.60;;;0.60;;
10096;SDS011;5087;42.662;23.466;2022-10-30T00:50:13;0.40;;;0.40;;
10096;SDS011;5087;42.662;23.466;2022-10-30T00:52:45;0.40;;;0.40;;
10096;SDS011;5087;42.662;23.466;2022-10-30T00:55:17;0.40;;;0.40;;
10096;SDS011;5087;42.662;23.466;2022-10-30T00:57:49;0.40;;;0.40;;
10096;SDS011;5087;42.662;23.466;2022-10-30T01:00:19;0.47;;;0.47;;
10096;SDS011;5087;42.662;23.466;2022-10-30T01:02:48;0.50;;;0.50;;
10096;SDS011;5087;42.662;23.466;2022-10-30T01:05:17;0.60;;;0.60;;
10096;SDS011;5087;42.662;23.466;2022-10-30T01:07:47;0.60;;;0.60;;
10096;SDS011;5087;42.662;23.466;2022-10-30T01:10:15;1.03;;;1.03;;
10096;SDS011;5087;42.662;23.466;2022-10-30T01:12:44;0.63;;;0.63;;
10096;SDS011;5087;42.662;23.466;2022-10-30T01:15:13;0.60;;;0.60;;
10096;SDS011;5087;42.662;23.466;2022-10-30T01:17:50;0.60;;;0.60;;
10096;SDS011;5087;42.662;23.466;2022-10-30T01:20:41;0.43;;;0.43;;
10096;SDS011;5087;42.662;23.466;2022-10-30T01:23:30;0.50;;;0.50;;
10096;SDS011;5087;42.662;23.466;2022-10-30T01:26:07;0.50;;;0.50;;
10096;SDS011;5087;42.662;23.466;2022-10-30T01:28:47;0.50;;;0.50;;
10096;SDS011;5087;42.662;23.466;2022-10-30T01:31:30;0.50;;;0.50;;
10096;SDS011;5087;42.662;23.466;2022-10-30T01:34:08;0.50;;;0.50;;
10096;SDS011;5087;42.662;23.466;2022-10-30T01:36:44;0.53;;;0.53;;
10096;SDS011;5087;42.662;23.466;2022-10-30T01:39:17;0.50;;;0.50;;
10096;SDS011;5087;42.662;23.466;2022-10-30T01:41:47;0.60;;;0.60;;
10096;SDS011;5087;42.662;23.466;2022-10-30T01:44:15;0.60;;;0.60;;
10096;SDS011;5087;42.662;23.466;2022-10-30T01:46:58;0.70;;;0.70;;
10096;SDS011;5087;42.662;23.466;2022-10-30T01:49:40;0.70;;;0.70;;
10096;SDS011;5087;42.662;23.466;2022-10-30T01:52:25;0.70;;;0.70;;
10096;SDS011;5087;42.662;23.466;2022-10-30T01:55:03;0.70;;;0.70;;
10096;SDS011;5087;42.662;23.466;2022-10-30T01:57:37;0.70;;;0.70;;
10096;SDS011;5087;42.662;23.466;2022-10-30T02:00:11;0.80;;;0.80;;
10096;SDS011;5087;42.662;23.466;2022-10-30T02:02:45;1.07;;;1.07;;
10096;SDS011;5087;42.662;23.466;2022-10-30T02:05:17;0.60;;;0.60;;
10096;SDS011;5087;42.662;23.466;2022-10-30T02:07:50;0.80;;;0.80;;
10096;SDS011;5087;42.662;23.466;2022-10-30T02:10:17;0.90;;;0.90;;
10096;SDS011;5087;42.662;23.466;2022-10-30T02:12:45;1.10;;;1.10;;
10096;SDS011;5087;42.662;23.466;2022-10-30T02:15:13;1.77;;;1.77;;
10096;SDS011;5087;42.662;23.466;2022-10-30T02:17:40;0.63;;;0.63;;
10096;SDS011;5087;42.662;23.466;2022-10-30T02:20:14;1.43;;;1.43;;
10096;SDS011;5087;42.662;23.466;2022-10-30T02:22:44;0.80;;;0.80;;
10096;SDS011;5087;42.662;23.466;2022-10-30T02:25:11;0.70;;;0.70;;
10096;SDS011;5087;42.662;23.466;2022-10-30T02:27:39;0.80;;;0.80;;
10096;SDS011;5087;42.662;23.466;2022-10-30T02:30:09;0.73;;;0.73;;
10096;SDS011;5087;42.662;23.466;2022-10-30T02:32:37;0.80;;;0.80;;
10096;SDS011;5087;42.662;23.466;2022-10-30T02:35:05;0.70;;;0.70;;
10096;SDS011;5087;42.662;23.466;2022-10-30T02:37:34;0.80;;;0.80;;
10096;SDS011;5087;42.662;23.466;2022-10-30T02:40:01;0.80;;;0.80;;
10096;SDS011;5087;42.662;23.466;2022-10-30T02:42:29;0.90;;;0.90;;
10096;SDS011;5087;42.662;23.466;2022-10-30T02:44:56;0.80;;;0.80;;
10096;SDS011;5087;42.662;23.466;2022-10-30T02:47:24;0.87;;;0.87;;
10096;SDS011;5087;42.662;23.466;2022-10-30T02:49:51;0.90;;;0.90;;
10096;SDS011;5087;42.662;23.466;2022-10-30T02:52:18;0.80;;;0.80;;
10096;SDS011;5087;42.662;23.466;2022-10-30T02:54:47;0.90;;;0.90;;
10096;SDS011;5087;42.662;23.466;2022-10-30T02:57:14;0.90;;;0.90;;
10096;SDS011;5087;42.662;23.466;2022-10-30T02:59:43;0.80;;;0.80;;
10096;SDS011;5087;42.662;23.466;2022-10-30T03:02:10;1.10;;;1.10;;
10096;SDS011;5087;42.662;23.466;2022-10-30T03:04:37;0.90;;;0.90;;
10096;SDS011;5087;42.662;23.466;2022-10-30T03:07:04;1.00;;;1.00;;
10096;SDS011;5087;42.662;23.466;2022-10-30T03:09:31;1.03;;;1.03;;
10096;SDS011;5087;42.662;23.466;2022-10-30T03:12:00;1.07;;;1.07;;
10096;SDS011;5087;42.662;23.466;2022-10-30T03:14:27;0.80;;;0.80;;
10096;SDS011;5087;42.662;23.466;2022-10-30T03:16:54;0.60;;;0.60;;
10096;SDS011;5087;42.662;23.466;2022-10-30T03:19:22;0.30;;;0.30;;
10096;SDS011;5087;42.662;23.466;2022-10-30T03:21:50;0.30;;;0.30;;
10096;SDS011;5087;42.662;23.466;2022-10-30T03:24:19;0.30;;;0.30;;
10096;SDS011;5087;42.662;23.466;2022-10-30T03:26:46;0.30;;;0.30;;
10096;SDS011;5087;42.662;23.466;2022-10-30T03:29:15;0.20;;;0.20;;
10096;SDS011;5087;42.662;23.466;2022-10-30T03:31:42;0.20;;;0.20;;
10096;SDS011;5087;42.662;23.466;2022-10-30T03:34:17;0.23;;;0.23;;
10096;SDS011;5087;42.662;23.466;2022-10-30T03:36:45;0.50;;;0.50;;
10096;SDS011;5087;42.662;23.466;2022-10-30T03:39:12;0.30;;;0.30;;
10096;SDS011;5087;42.662;23.466;2022-10-30T03:41:42;1.13;;;1.13;;
10096;SDS011;5087;42.662;23.466;2022-10-30T03:44:10;0.20;;;0.20;;
10096;SDS011;5087;42.662;23.466;2022-10-30T03:46:39;0.30;;;0.30;;
10096;SDS011;5087;42.662;23.466;2022-10-30T03:49:19;0.87;;;0.87;;
10096;SDS011;5087;42.662;23.466;2022-10-30T03:51:46;0.30;;;0.30;;
10096;SDS011;5087;42.662;23.466;2022-10-30T03:54:13;0.20;;;0.20;;
10096;SDS011;5087;42.662;23.466;2022-10-30T03:56:43;0.20;;;0.20;;
10096;SDS011;5087;42.662;23.466;2022-10-30T03:59:13;0.20;;;0.20;;
10096;SDS011;5087;42.662;23.466;2022-10-30T04:01:44;0.20;;;0.20;;
10096;SDS011;5087;42.662;23.466;2022-10-30T04:04:11;0.20;;;0.20;;
10096;SDS011;5087;42.662;23.466;2022-10-30T04:06:39;1.27;;;1.27;;
10096;SDS011;5087;42.662;23.466;2022-10-30T04:09:07;0.10;;;0.10;;
10096;SDS011;5087;42.662;23.466;2022-10-30T04:11:39;0.10;;;0.10;;
10096;SDS011;5087;42.662;23.466;2022-10-30T04:14:07;0.10;;;0.10;;
10096;SDS011;5087;42.662;23.466;2022-10-30T04:16:34;0.10;;;0.10;;
10096;SDS011;5087;42.662;23.466;2022-10-30T04:19:03;0.10;;;0.10;;
10096;SDS011;5087;42.662;23.466;2022-10-30T04:21:30;0.10;;;0.10;;
10096;SDS011;5087;42.662;23.466;2022-10-30T04:23:58;0.10;;;0.10;;
10096;SDS011;5087;42.662;23.466;2022-10-30T04:26:28;0.10;;;0.10;;
10096;SDS011;5087;42.662;23.466;2022-10-30T04:28:56;0.10;;;0.10;;
10096;SDS011;5087;42.662;23.466;2022-10-30T04:31:23;0.10;;;0.10;;
10096;SDS011;5087;42.662;23.466;2022-10-30T04:33:50;0.10;;;0.10;;
10096;SDS011;5087;42.662;23.466;2022-10-30T04:36:19;0.10;;;0.10;;
10096;SDS011;5087;42.662;23.466;2022-10-30T04:38:49;0.10;;;0.10;;
10096;SDS011;5087;42.662;23.466;2022-10-30T04:41:19;0.00;;;0.00;;
10096;SDS011;5087;42.662;23.466;2022-10-30T04:43:55;0.07;;;0.07;;
10096;SDS011;5087;42.662;23.466;2022-10-30T04:46:23;0.10;;;0.10;;
10096;SDS011;5087;42.662;23.466;2022-10-30T04:48:53;1.60;;;1.50;;
10096;SDS011;5087;42.662;23.466;2022-10-30T04:51:23;0.00;;;0.00;;
10096;SDS011;5087;42.662;23.466;2022-10-30T04:53:50;0.10;;;0.10;;
10096;SDS011;5087;42.662;23.466;2022-10-30T04:56:18;0.00;;;0.00;;
10096;SDS011;5087;42.662;23.466;2022-10-30T04:58:46;0.00;;;0.00;;
10096;SDS011;5087;42.662;23.466;2022-10-30T05:01:13;0.00;;;0.00;;
10096;SDS011;5087;42.662;23.466;2022-10-30T05:03:40;0.00;;;0.00;;
10096;SDS011;5087;42.662;23.466;2022-10-30T05:06:14;0.10;;;0.10;;
10096;SDS011;5087;42.662;23.466;2022-10-30T05:08:49;0.67;;;0.67;;
10096;SDS011;5087;42.662;23.466;2022-10-30T05:11:33;0.00;;;0.00;;
10096;SDS011;5087;42.662;23.466;2022-10-30T05:14:01;0.20;;;0.20;;
10096;SDS011;5087;42.662;23.466;2022-10-30T05:16:29;0.00;;;0.00;;
10096;SDS011;5087;42.662;23.466;2022-10-30T05:18:58;0.07;;;0.07;;
10096;SDS011;5087;42.662;23.466;2022-10-30T05:21:25;0.10;;;0.10;;
10096;SDS011;5087;42.662;23.466;2022-10-30T05:23:54;0.03;;;0.03;;
10096;SDS011;5087;42.662;23.466;2022-10-30T05:26:22;0.00;;;0.00;;
10096;SDS011;5087;42.662;23.466;2022-10-30T05:28:51;0.00;;;0.00;;
10096;SDS011;5087;42.662;23.466;2022-10-30T05:31:18;0.00;;;0.00;;
10096;SDS011;5087;42.662;23.466;2022-10-30T05:33:54;0.10;;;0.10;;
10096;SDS011;5087;42.662;23.466;2022-10-30T05:36:22;0.10;;;0.10;;
10096;SDS011;5087;42.662;23.466;2022-10-30T05:38:51;0.00;;;0.00;;
10096;SDS011;5087;42.662;23.466;2022-10-30T05:41:42;0.00;;;0.00;;
10096;SDS011;5087;42.662;23.466;2022-10-30T05:44:09;0.10;;;0.10;;
10096;SDS011;5087;42.662;23.466;2022-10-30T05:46:39;0.27;;;0.27;;
10096;SDS011;5087;42.662;23.466;2022-10-30T05:49:17;0.10;;;0.10;;
10096;SDS011;5087;42.662;23.466;2022-10-30T05:51:45;0.20;;;0.20;;
10096;SDS011;5087;42.662;23.466;2022-10-30T05:54:12;0.30;;;0.30;;
10096;SDS011;5087;42.662;23.466;2022-10-30T05:56:55;0.30;;;0.30;;
10096;SDS011;5087;42.662;23.466;2022-10-30T05:59:22;0.50;;;0.50;;
10096;SDS011;5087;42.662;23.466;2022-10-30T06:01:50;0.80;;;0.80;;
10096;SDS011;5087;42.662;23.466;2022-10-30T06:04:17;0.60;;;0.60;;
10096;SDS011;5087;42.662;23.466;2022-10-30T06:06:46;1.07;;;1.07;;
10096;SDS011;5087;42.662;23.466;2022-10-30T06:09:13;1.23;;;1.23;;
10096;SDS011;5087;42.662;23.466;2022-10-30T06:11:54;1.40;;;1.40;;
10096;SDS011;5087;42.662;23.466;2022-10-30T06:14:34;1.30;;;1.30;;
10096;SDS011;5087;42.662;23.466;2022-10-30T06:17:02;0.80;;;0.80;;
10096;SDS011;5087;42.662;23.466;2022-10-30T06:19:48;0.60;;;0.60;;
10096;SDS011;5087;42.662;23.466;2022-10-30T06:22:34;0.50;;;0.50;;
10096;SDS011;5087;42.662;23.466;2022-10-30T06:25:10;0.60;;;0.60;;
10096;SDS011;5087;42.662;23.466;2022-10-30T06:27:58;0.50;;;0.50;;
10096;SDS011;5087;42.662;23.466;2022-10-30T06:30:28;0.90;;;0.90;;
10096;SDS011;5087;42.662;23.466;2022-10-30T06:32:56;0.40;;;0.40;;
10096;SDS011;5087;42.662;23.466;2022-10-30T06:35:23;0.60;;;0.60;;
10096;SDS011;5087;42.662;23.466;2022-10-30T06:37:51;0.60;;;0.60;;
10096;SDS011;5087;42.662;23.466;2022-10-30T06:40:20;0.70;;;0.70;;
10096;SDS011;5087;42.662;23.466;2022-10-30T06:43:21;0.70;;;0.70;;
10096;SDS011;5087;42.662;23.466;2022-10-30T06:45:56;0.70;;;0.70;;
10096;SDS011;5087;42.662;23.466;2022-10-30T06:48:25;1.20;;;1.20;;
10096;SDS011;5087;42.662;23.466;2022-10-30T06:50:53;1.87;;;1.87;;
10096;SDS011;5087;42.662;23.466;2022-10-30T06:53:22;2.00;;;2.00;;
10096;SDS011;5087;42.662;23.466;2022-10-30T06:55:54;2.80;;;2.80;;
10096;SDS011;5087;42.662;23.466;2022-10-30T06:58:55;2.80;;;2.80;;
10096;SDS011;5087;42.662;23.466;2022-10-30T07:01:57;3.00;;;3.00;;
10096;SDS011;5087;42.662;23.466;2022-10-30T07:04:25;2.90;;;2.90;;
10096;SDS011;5087;42.662;23.466;2022-10-30T07:06:56;2.70;;;2.70;;
10096;SDS011;5087;42.662;23.466;2022-10-30T07:09:23;3.13;;;3.13;;
10096;SDS011;5087;42.662;23.466;2022-10-30T07:11:51;3.60;;;3.60;;
10096;SDS011;5087;42.662;23.466;2022-10-30T07:14:45;4.40;;;4.30;;
10096;SDS011;5087;42.662;23.466;2022-10-30T07:17:27;4.80;;;4.70;;
10096;SDS011;5087;42.662;23.466;2022-10-30T07:19:58;4.90;;;4.80;;
10096;SDS011;5087;42.662;23.466;2022-10-30T07:22:27;4.90;;;4.80;;
10096;SDS011;5087;42.662;23.466;2022-10-30T07:24:55;4.50;;;4.40;;
10096;SDS011;5087;42.662;23.466;2022-10-30T07:27:41;4.80;;;4.70;;
10096;SDS011;5087;42.662;23.466;2022-10-30T07:30:39;4.53;;;4.43;;
10096;SDS011;5087;42.662;23.466;2022-10-30T07:33:15;5.37;;;5.27;;
10096;SDS011;5087;42.662;23.466;2022-10-30T07:36:09;4.87;;;4.77;;
10096;SDS011;5087;42.662;23.466;2022-10-30T07:38:51;4.97;;;4.87;;
10096;SDS011;5087;42.662;23.466;2022-10-30T07:41:29;4.93;;;4.83;;
10096;SDS011;5087;42.662;23.466;2022-10-30T07:44:15;5.77;;;5.50;;
10096;SDS011;5087;42.662;23.466;2022-10-30T07:47:03;5.80;;;5.60;;
10096;SDS011;5087;42.662;23.466;2022-10-30T07:49:45;5.00;;;4.90;;
10096;SDS011;5087;42.662;23.466;2022-10-30T07:52:13;5.23;;;5.13;;
10096;SDS011;5087;42.662;23.466;2022-10-30T07:54:41;5.00;;;4.90;;
10096;SDS011;5087;42.662;23.466;2022-10-30T07:57:25;4.90;;;4.80;;
10096;SDS011;5087;42.662;23.466;2022-10-30T08:00:11;5.00;;;4.90;;
10096;SDS011;5087;42.662;23.466;2022-10-30T08:02:41;4.60;;;4.50;;
10096;SDS011;5087;42.662;23.466;2022-10-30T08:05:31;4.70;;;4.60;;
10096;SDS011;5087;42.662;23.466;2022-10-30T08:08:05;5.20;;;5.10;;
10096;SDS011;5087;42.662;23.466;2022-10-30T08:10:33;5.00;;;4.90;;
10096;SDS011;5087;42.662;23.466;2022-10-30T08:13:01;5.40;;;5.30;;
10096;SDS011;5087;42.662;23.466;2022-10-30T08:15:28;4.93;;;4.83;;
10096;SDS011;5087;42.662;23.466;2022-10-30T08:17:58;5.50;;;5.40;;
10096;SDS011;5087;42.662;23.466;2022-10-30T08:20:26;6.20;;;6.10;;
10096;SDS011;5087;42.662;23.466;2022-10-30T08:22:54;5.70;;;5.60;;
10096;SDS011;5087;42.662;23.466;2022-10-30T08:25:24;5.30;;;5.20;;
10096;SDS011;5087;42.662;23.466;2022-10-30T08:27:53;5.60;;;5.50;;
10096;SDS011;5087;42.662;23.466;2022-10-30T08:30:25;5.30;;;5.20;;
10096;SDS011;5087;42.662;23.466;2022-10-30T08:33:00;5.60;;;5.50;;
10096;SDS011;5087;42.662;23.466;2022-10-30T08:35:47;5.40;;;5.30;;
10096;SDS011;5087;42.662;23.466;2022-10-30T08:38:15;5.50;;;5.40;;
10096;SDS011;5087;42.662;23.466;2022-10-30T08:40:47;5.30;;;5.20;;
10096;SDS011;5087;42.662;23.466;2022-10-30T08:43:15;5.47;;;5.37;;
10096;SDS011;5087;42.662;23.466;2022-10-30T08:45:43;5.60;;;5.50;;
10096;SDS011;5087;42.662;23.466;2022-10-30T08:48:14;5.70;;;5.60;;
10096;SDS011;5087;42.662;23.466;2022-10-30T08:50:43;5.70;;;5.60;;
10096;SDS011;5087;42.662;23.466;2022-10-30T08:53:14;5.50;;;5.40;;
10096;SDS011;5087;42.662;23.466;2022-10-30T08:55:44;5.53;;;5.43;;
10096;SDS011;5087;42.662;23.466;2022-10-30T08:58:19;5.80;;;5.70;;
10096;SDS011;5087;42.662;23.466;2022-10-30T09:00:47;5.60;;;5.50;;
10096;SDS011;5087;42.662;23.466;2022-10-30T09:03:15;5.00;;;4.90;;
10096;SDS011;5087;42.662;23.466;2022-10-30T09:06:01;5.10;;;5.00;;
10096;SDS011;5087;42.662;23.466;2022-10-30T09:08:48;4.90;;;4.80;;
10096;SDS011;5087;42.662;23.466;2022-10-30T09:11:26;4.50;;;4.40;;
10096;SDS011;5087;42.662;23.466;2022-10-30T09:13:54;4.30;;;4.20;;
10096;SDS011;5087;42.662;23.466;2022-10-30T09:16:22;4.87;;;4.77;;
10096;SDS011;5087;42.662;23.466;2022-10-30T09:18:51;5.30;;;5.20;;
10096;SDS011;5087;42.662;23.466;2022-10-30T09:21:21;5.40;;;5.30;;
10096;SDS011;5087;42.662;23.466;2022-10-30T09:23:51;5.00;;;4.90;;
10096;SDS011;5087;42.662;23.466;2022-10-30T09:26:38;5.30;;;5.20;;
10096;SDS011;5087;42.662;23.466;2022-10-30T09:29:19;5.10;;;5.00;;
10096;SDS011;5087;42.662;23.466;2022-10-30T09:32:04;4.80;;;4.70;;
10096;SDS011;5087;42.662;23.466;2022-10-30T09:34:48;5.20;;;5.10;;
10096;SDS011;5087;42.662;23.466;2022-10-30T09:37:28;5.10;;;5.00;;
10096;SDS011;5087;42.662;23.466;2022-10-30T09:39:58;4.80;;;4.70;;
10096;SDS011;5087;42.662;23.466;2022-10-30T09:42:33;3.90;;;3.90;;
10096;SDS011;5087;42.662;23.466;2022-10-30T09:45:15;4.17;;;4.07;;
10096;SDS011;5087;42.662;23.466;2022-10-30T09:47:53;4.70;;;4.40;;
10096;SDS011;5087;42.662;23.466;2022-10-30T09:50:46;4.20;;;4.10;;
10096;SDS011;5087;42.662;23.466;2022-10-30T09:53:21;3.90;;;3.90;;
10096;SDS011;5087;42.662;23.466;2022-10-30T09:56:02;3.90;;;3.80;;
10096;SDS011;5087;42.662;23.466;2022-10-30T09:58:35;3.90;;;3.80;;
10096;SDS011;5087;42.662;23.466;2022-10-30T10:01:12;3.33;;;3.33;;
10096;SDS011;5087;42.662;23.466;2022-10-30T10:03:58;3.80;;;3.70;;
10096;SDS011;5087;42.662;23.466;2022-10-30T10:06:59;3.50;;;3.50;;
10096;SDS011;5087;42.662;23.466;2022-10-30T10:09:53;3.77;;;3.77;;
10096;SDS011;5087;42.662;23.466;2022-10-30T10:12:52;3.70;;;3.70;;
10096;SDS011;5087;42.662;23.466;2022-10-30T10:15:28;4.00;;;3.90;;
10096;SDS011;5087;42.662;23.466;2022-10-30T10:18:05;3.50;;;3.50;;
10096;SDS011;5087;42.662;23.466;2022-10-30T10:20:38;3.40;;;3.40;;
10096;SDS011;5087;42.662;23.466;2022-10-30T10:23:11;3.73;;;3.70;;
10096;SDS011;5087;42.662;23.466;2022-10-30T10:25:44;3.30;;;3.30;;
10096;SDS011;5087;42.662;23.466;2022-10-30T10:28:20;3.10;;;3.10;;
10096;SDS011;5087;42.662;23.466;2022-10-30T10:31:12;3.30;;;3.30;;
10096;SDS011;5087;42.662;23.466;2022-10-30T10:33:56;3.10;;;3.10;;
10096;SDS011;5087;42.662;23.466;2022-10-30T10:36:36;3.20;;;3.20;;
10096;SDS011;5087;42.662;23.466;2022-10-30T10:39:21;3.20;;;3.20;;
10096;SDS011;5087;42.662;23.466;2022-10-30T10:42:01;2.97;;;2.97;;
10096;SDS011;5087;42.662;23.466;2022-10-30T10:44:40;3.00;;;3.00;;
10096;SDS011;5087;42.662;23.466;2022-10-30T10:47:27;3.40;;;3.30;;
10096;SDS011;5087;42.662;23.466;2022-10-30T10:50:16;3.20;;;3.20;;
10096;SDS011;5087;42.662;23.466;2022-10-30T10:52:50;3.00;;;3.00;;
10096;SDS011;5087;42.662;23.466;2022-10-30T10:55:22;3.00;;;3.00;;
10096;SDS011;5087;42.662;23.466;2022-10-30T10:57:53;2.90;;;2.90;;
10096;SDS011;5087;42.662;23.466;2022-10-30T11:00:24;2.80;;;2.80;;
10096;SDS011;5087;42.662;23.466;2022-10-30T11:02:55;3.00;;;3.00;;
10096;SDS011;5087;42.662;23.466;2022-10-30T11:05:29;3.20;;;3.20;;
10096;SDS011;5087;42.662;23.466;2022-10-30T11:08:02;3.50;;;3.50;;
10096;SDS011;5087;42.662;23.466;2022-10-30T11:10:39;3.20;;;3.20;;
10096;SDS011;5087;42.662;23.466;2022-10-30T11:13:08;2.90;;;2.90;;
10096;SDS011;5087;42.662;23.466;2022-10-30T11:15:39;3.20;;;3.20;;
10096;SDS011;5087;42.662;23.466;2022-10-30T11:18:14;2.80;;;2.80;;
10096;SDS011;5087;42.662;23.466;2022-10-30T11:20:43;2.60;;;2.60;;
10096;SDS011;5087;42.662;23.466;2022-10-30T11:23:30;2.50;;;2.50;;
10096;SDS011;5087;42.662;23.466;2022-10-30T11:28:57;2.43;;;2.43;;
10096;SDS011;5087;42.662;23.466;2022-10-30T11:31:28;2.40;;;2.40;;
10096;SDS011;5087;42.662;23.466;2022-10-30T11:36:50;2.20;;;2.20;;
10096;SDS011;5087;42.662;23.466;2022-10-30T11:39:19;2.60;;;2.60;;
10096;SDS011;5087;42.662;23.466;2022-10-30T11:41:53;2.50;;;2.50;;
10096;SDS011;5087;42.662;23.466;2022-10-30T11:44:23;2.43;;;2.43;;
10096;SDS011;5087;42.662;23.466;2022-10-30T11:46:55;2.60;;;2.60;;
10096;SDS011;5087;42.662;23.466;2022-10-30T11:49:24;2.80;;;2.80;;
10096;SDS011;5087;42.662;23.466;2022-10-30T11:51:53;3.70;;;3.60;;
10096;SDS011;5087;42.662;23.466;2022-10-30T11:54:20;2.70;;;2.70;;
10096;SDS011;5087;42.662;23.466;2022-10-30T11:56:49;3.00;;;3.00;;
10096;SDS011;5087;42.662;23.466;2022-10-30T11:59:18;2.63;;;2.63;;
10096;SDS011;5087;42.662;23.466;2022-10-30T12:01:58;2.30;;;2.30;;
10096;SDS011;5087;42.662;23.466;2022-10-30T12:04:28;2.40;;;2.40;;
10096;SDS011;5087;42.662;23.466;2022-10-30T12:07:07;2.50;;;2.50;;
10096;SDS011;5087;42.662;23.466;2022-10-30T12:09:42;2.00;;;2.00;;
10096;SDS011;5087;42.662;23.466;2022-10-30T12:12:14;2.00;;;2.00;;
10096;SDS011;5087;42.662;23.466;2022-10-30T12:14:49;1.80;;;1.80;;
10096;SDS011;5087;42.662;23.466;2022-10-30T12:17:20;2.00;;;2.00;;
10096;SDS011;5087;42.662;23.466;2022-10-30T12:19:48;2.10;;;2.10;;
10096;SDS011;5087;42.662;23.466;2022-10-30T12:22:28;2.77;;;2.67;;
10096;SDS011;5087;42.662;23.466;2022-10-30T12:24:57;2.40;;;2.40;;
10096;SDS011;5087;42.662;23.466;2022-10-30T12:27:29;2.20;;;2.20;;
10096;SDS011;5087;42.662;23.466;2022-10-30T12:30:03;2.20;;;2.20;;
10096;SDS011;5087;42.662;23.466;2022-10-30T12:32:37;2.07;;;2.07;;
10096;SDS011;5087;42.662;23.466;2022-10-30T12:35:14;1.90;;;1.90;;
10096;SDS011;5087;42.662;23.466;2022-10-30T12:37:51;2.10;;;2.10;;
10096;SDS011;5087;42.662;23.466;2022-10-30T12:40:20;2.00;;;2.00;;
10096;SDS011;5087;42.662;23.466;2022-10-30T12:42:53;2.00;;;2.00;;
10096;SDS011;5087;42.662;23.466;2022-10-30T12:45:26;1.90;;;1.90;;
10096;SDS011;5087;42.662;23.466;2022-10-30T12:47:59;1.77;;;1.77;;
10096;SDS011;5087;42.662;23.466;2022-10-30T12:50:35;1.93;;;1.93;;
10096;SDS011;5087;42.662;23.466;2022-10-30T12:53:10;1.90;;;1.90;;
10096;SDS011;5087;42.662;23.466;2022-10-30T12:55:48;8.87;;;2.43;;
10096;SDS011;5087;42.662;23.466;2022-10-30T12:58:22;2.10;;;2.10;;
10096;SDS011;5087;42.662;23.466;2022-10-30T13:00:57;2.00;;;2.00;;
10096;SDS011;5087;42.662;23.466;2022-10-30T13:03:29;2.00;;;2.00;;
10096;SDS011;5087;42.662;23.466;2022-10-30T13:06:01;1.80;;;1.80;;
10096;SDS011;5087;42.662;23.466;2022-10-30T13:08:37;1.70;;;1.70;;
10096;SDS011;5087;42.662;23.466;2022-10-30T13:11:10;1.80;;;1.80;;
10096;SDS011;5087;42.662;23.466;2022-10-30T13:13:47;1.80;;;1.80;;
10096;SDS011;5087;42.662;23.466;2022-10-30T13:16:17;1.90;;;1.90;;
10096;SDS011;5087;42.662;23.466;2022-10-30T13:18:49;2.00;;;2.00;;
10096;SDS011;5087;42.662;23.466;2022-10-30T13:21:23;1.93;;;1.93;;
10096;SDS011;5087;42.662;23.466;2022-10-30T13:23:58;1.90;;;1.90;;
10096;SDS011;5087;42.662;23.466;2022-10-30T13:26:30;1.70;;;1.70;;
10096;SDS011;5087;42.662;23.466;2022-10-30T13:29:06;2.00;;;2.00;;
10096;SDS011;5087;42.662;23.466;2022-10-30T13:31:48;1.80;;;1.80;;
10096;SDS011;5087;42.662;23.466;2022-10-30T13:34:25;1.80;;;1.80;;
10096;SDS011;5087;42.662;23.466;2022-10-30T13:37:00;1.80;;;1.80;;
10096;SDS011;5087;42.662;23.466;2022-10-30T13:39:35;1.90;;;1.90;;
10096;SDS011;5087;42.662;23.466;2022-10-30T13:42:17;1.90;;;1.90;;
10096;SDS011;5087;42.662;23.466;2022-10-30T13:44:57;1.60;;;1.60;;
10096;SDS011;5087;42.662;23.466;2022-10-30T13:47:38;1.90;;;1.90;;
10096;SDS011;5087;42.662;23.466;2022-10-30T13:50:16;1.80;;;1.80;;
10096;SDS011;5087;42.662;23.466;2022-10-30T13:52:55;2.07;;;2.07;;
10096;SDS011;5087;42.662;23.466;2022-10-30T13:55:27;2.00;;;2.00;;
10096;SDS011;5087;42.662;23.466;2022-10-30T13:57:58;2.10;;;2.10;;
10096;SDS011;5087;42.662;23.466;2022-10-30T14:00:44;2.27;;;2.27;;
10096;SDS011;5087;42.662;23.466;2022-10-30T14:03:26;1.80;;;1.80;;
10096;SDS011;5087;42.662;23.466;2022-10-30T14:06:01;1.90;;;1.90;;
10096;SDS011;5087;42.662;23.466;2022-10-30T14:08:36;1.80;;;1.80;;
10096;SDS011;5087;42.662;23.466;2022-10-30T14:11:10;1.80;;;1.80;;
10096;SDS011;5087;42.662;23.466;2022-10-30T14:13:51;1.70;;;1.70;;
10096;SDS011;5087;42.662;23.466;2022-10-30T14:16:36;1.83;;;1.83;;
10096;SDS011;5087;42.662;23.466;2022-10-30T14:19:07;2.07;;;2.07;;
10096;SDS011;5087;42.662;23.466;2022-10-30T14:21:39;1.70;;;1.70;;
10096;SDS011;5087;42.662;23.466;2022-10-30T14:24:17;1.80;;;1.80;;
10096;SDS011;5087;42.662;23.466;2022-10-30T14:26:50;2.00;;;2.00;;
10096;SDS011;5087;42.662;23.466;2022-10-30T14:29:30;2.20;;;2.20;;
10096;SDS011;5087;42.662;23.466;2022-10-30T14:32:38;2.10;;;2.10;;
10096;SDS011;5087;42.662;23.466;2022-10-30T14:38:22;1.70;;;1.70;;
10096;SDS011;5087;42.662;23.466;2022-10-30T14:41:03;1.90;;;1.90;;
10096;SDS011;5087;42.662;23.466;2022-10-30T14:43:39;1.80;;;1.80;;
10096;SDS011;5087;42.662;23.466;2022-10-30T14:46:16;2.00;;;2.00;;
10096;SDS011;5087;42.662;23.466;2022-10-30T14:48:53;1.97;;;1.97;;
10096;SDS011;5087;42.662;23.466;2022-10-30T14:51:28;2.20;;;2.20;;
10096;SDS011;5087;42.662;23.466;2022-10-30T14:54:07;2.00;;;2.00;;
10096;SDS011;5087;42.662;23.466;2022-10-30T14:56:44;2.20;;;2.20;;
10096;SDS011;5087;42.662;23.466;2022-10-30T14:59:21;2.00;;;2.00;;
10096;SDS011;5087;42.662;23.466;2022-10-30T15:01:54;2.17;;;2.17;;
10096;SDS011;5087;42.662;23.466;2022-10-30T15:04:35;2.10;;;2.10;;
10096;SDS011;5087;42.662;23.466;2022-10-30T15:07:13;2.10;;;2.10;;
10096;SDS011;5087;42.662;23.466;2022-10-30T15:09:57;2.17;;;2.17;;
10096;SDS011;5087;42.662;23.466;2022-10-30T15:12:40;3.50;;;3.40;;
10096;SDS011;5087;42.662;23.466;2022-10-30T15:15:27;2.10;;;2.10;;
10096;SDS011;5087;42.662;23.466;2022-10-30T15:17:55;1.70;;;1.70;;
10096;SDS011;5087;42.662;23.466;2022-10-30T15:20:27;2.00;;;2.00;;
10096;SDS011;5087;42.662;23.466;2022-10-30T15:22:57;1.93;;;1.93;;
10096;SDS011;5087;42.662;23.466;2022-10-30T15:25:29;2.30;;;2.30;;
10096;SDS011;5087;42.662;23.466;2022-10-30T15:28:00;2.27;;;2.27;;
10096;SDS011;5087;42.662;23.466;2022-10-30T15:30:27;2.40;;;2.40;;
10096;SDS011;5087;42.662;23.466;2022-10-30T15:32:54;2.30;;;2.30;;
10096;SDS011;5087;42.662;23.466;2022-10-30T15:35:22;2.60;;;2.60;;